createdAt,value
2023-03-06T00:00:47.374Z,27.62
2023-03-06T00:03:17.689Z,27.61
2023-03-06T00:05:48.882Z,27.59
2023-03-06T00:08:19.072Z,27.59
2023-03-06T00:10:49.276Z,27.59
2023-03-06T00:13:22.940Z,27.60
2023-03-06T00:15:53.188Z,27.61
2023-03-06T00:18:23.377Z,27.66
2023-03-06T00:20:53.719Z,27.67
2023-03-06T00:23:23.940Z,27.70
2023-03-06T00:25:54.078Z,27.72
2023-03-06T00:28:24.247Z,27.74
2023-03-06T00:30:54.487Z,27.78
2023-03-06T00:33:24.693Z,27.80
2023-03-06T00:35:57.269Z,27.82
2023-03-06T00:38:29.979Z,27.84
2023-03-06T00:41:00.504Z,27.86
2023-03-06T00:43:31.770Z,27.86
2023-03-06T00:46:02.025Z,27.87
2023-03-06T00:48:32.156Z,27.90
2023-03-06T00:51:02.633Z,27.91
2023-03-06T00:53:32.876Z,27.92
2023-03-06T00:56:03.251Z,27.93
2023-03-06T00:58:38.656Z,27.94
2023-03-06T01:01:09.002Z,27.95
2023-03-06T01:03:39.494Z,27.98
2023-03-06T01:06:09.805Z,27.98
2023-03-06T01:08:40.028Z,27.99
2023-03-06T01:11:10.278Z,28.01
2023-03-06T01:13:40.517Z,28.03
2023-03-06T01:16:11.777Z,28.04
2023-03-06T01:18:42.545Z,28.05
2023-03-06T01:21:12.868Z,28.07
2023-03-06T01:23:43.633Z,28.09
2023-03-06T01:26:13.926Z,28.10
2023-03-06T01:28:44.671Z,28.12
2023-03-06T01:31:14.952Z,28.14
2023-03-06T01:33:45.363Z,28.16
2023-03-06T01:36:17.464Z,28.17
2023-03-06T01:38:48.636Z,28.19
2023-03-06T01:41:19.616Z,28.21
2023-03-06T01:43:50.359Z,28.23
2023-03-06T01:46:20.564Z,28.25
2023-03-06T01:48:52.000Z,28.26
2023-03-06T01:51:23.006Z,28.28
2023-03-06T01:53:54.602Z,28.31
2023-03-06T01:56:26.427Z,28.32
2023-03-06T01:58:56.680Z,28.35
2023-03-06T02:01:27.214Z,28.35
2023-03-06T02:03:57.579Z,28.37
2023-03-06T02:06:27.820Z,28.39
2023-03-06T02:08:58.418Z,28.41
2023-03-06T02:11:29.119Z,28.42
2023-03-06T02:13:59.443Z,28.45
2023-03-06T02:16:31.294Z,28.46
2023-03-06T02:19:03.849Z,28.48
2023-03-06T02:21:36.124Z,28.49
2023-03-06T02:24:35.684Z,28.52
2023-03-06T02:27:07.204Z,28.54
2023-03-06T02:29:38.424Z,28.57
2023-03-06T02:32:09.056Z,28.58
2023-03-06T02:34:39.257Z,28.61
2023-03-06T02:37:10.516Z,28.63
2023-03-06T02:39:43.512Z,28.64
2023-03-06T02:42:19.458Z,28.65
2023-03-06T02:44:50.513Z,28.68
2023-03-06T02:47:20.894Z,28.70
2023-03-06T02:49:51.200Z,28.72
2023-03-06T02:52:21.721Z,28.74
2023-03-06T02:54:52.060Z,28.75
2023-03-06T02:57:22.887Z,28.77
2023-03-06T02:59:53.585Z,28.80
2023-03-06T03:02:23.855Z,28.82
2023-03-06T03:04:54.997Z,28.84
2023-03-06T03:07:26.440Z,28.85
2023-03-06T03:09:56.926Z,28.86
2023-03-06T03:12:29.552Z,28.90
2023-03-06T03:14:59.892Z,28.91
2023-03-06T03:17:32.059Z,28.94
2023-03-06T03:20:03.026Z,28.96
2023-03-06T03:22:33.440Z,28.99
2023-03-06T03:25:03.898Z,29.00
2023-03-06T03:27:34.586Z,29.02
2023-03-06T03:30:05.887Z,29.05
2023-03-06T03:32:36.189Z,29.07
2023-03-06T03:35:07.985Z,29.09
2023-03-06T03:37:39.421Z,29.12
2023-03-06T03:40:11.711Z,29.15
2023-03-06T03:42:42.300Z,29.17
2023-03-06T03:45:13.635Z,29.19
2023-03-06T03:47:44.425Z,29.22
2023-03-06T03:50:16.440Z,29.25
2023-03-06T03:52:47.302Z,29.26
2023-03-06T03:55:17.662Z,29.29
2023-03-06T03:57:48.586Z,29.32
2023-03-06T04:00:19.181Z,29.35
2023-03-06T04:03:05.931Z,29.38
2023-03-06T04:05:40.555Z,29.41
2023-03-06T04:08:12.282Z,29.43
2023-03-06T04:10:45.916Z,29.46
2023-03-06T04:13:19.474Z,29.49
2023-03-06T04:15:51.160Z,29.53
2023-03-06T04:18:25.033Z,29.55
2023-03-06T04:20:58.467Z,29.58
2023-03-06T04:23:29.349Z,29.60
2023-03-06T04:26:00.020Z,29.64
2023-03-06T04:28:31.322Z,29.66
2023-03-06T04:31:02.768Z,29.69
2023-03-06T04:33:34.477Z,29.72
2023-03-06T04:36:05.137Z,29.75
2023-03-06T04:38:36.881Z,29.78
2023-03-06T04:41:08.518Z,29.80
2023-03-06T04:43:40.945Z,29.83
2023-03-06T04:46:12.777Z,29.87
2023-03-06T04:48:42.975Z,29.90
2023-03-06T04:51:16.505Z,29.92
2023-03-06T04:53:47.009Z,29.96
2023-03-06T04:56:17.338Z,29.98
2023-03-06T04:58:47.608Z,30.02
2023-03-06T05:01:17.814Z,30.04
2023-03-06T05:03:48.706Z,30.07
2023-03-06T05:06:18.925Z,30.09
2023-03-06T05:08:49.273Z,30.13
2023-03-06T05:11:19.563Z,30.15
2023-03-06T05:13:49.821Z,30.19
2023-03-06T05:16:20.117Z,30.21
2023-03-06T05:18:50.769Z,30.23
2023-03-06T05:21:21.698Z,30.26
2023-03-06T05:23:51.933Z,30.26
2023-03-06T05:26:22.128Z,30.28
2023-03-06T05:28:52.406Z,30.32
2023-03-06T05:31:22.863Z,30.33
2023-03-06T05:33:54.784Z,30.36
2023-03-06T05:36:41.168Z,30.36
2023-03-06T05:39:11.549Z,30.37
2023-03-06T05:41:41.819Z,30.38
2023-03-06T05:44:12.052Z,30.38
2023-03-06T05:46:42.228Z,30.39
2023-03-06T05:49:12.437Z,30.40
2023-03-06T05:51:51.811Z,30.41
2023-03-06T05:54:22.685Z,30.43
2023-03-06T05:56:53.070Z,30.44
2023-03-06T05:59:23.248Z,30.46
2023-03-06T06:01:53.461Z,30.48
2023-03-06T06:04:24.490Z,30.50
2023-03-06T06:06:58.926Z,30.55
2023-03-06T06:09:30.464Z,30.58
2023-03-06T06:12:01.977Z,30.59
2023-03-06T06:14:32.540Z,30.61
2023-03-06T06:17:02.752Z,30.63
2023-03-06T06:19:33.305Z,30.66
2023-03-06T06:22:06.391Z,30.68
2023-03-06T06:24:36.692Z,30.70
2023-03-06T06:27:06.893Z,30.72
2023-03-06T06:29:37.646Z,30.75
2023-03-06T06:32:08.178Z,30.77
2023-03-06T06:34:38.488Z,30.79
2023-03-06T06:37:08.672Z,30.82
2023-03-06T06:39:38.982Z,30.82
2023-03-06T06:42:29.824Z,30.85
2023-03-06T06:45:01.735Z,30.86
2023-03-06T06:47:32.535Z,30.90
2023-03-06T06:50:02.903Z,30.91
2023-03-06T06:52:33.814Z,30.94
2023-03-06T06:55:03.973Z,30.96
2023-03-06T06:57:34.184Z,30.99
2023-03-06T07:00:05.203Z,31.02
2023-03-06T07:02:35.501Z,31.03
2023-03-06T07:05:05.899Z,31.06
2023-03-06T07:07:36.982Z,31.07
2023-03-06T07:10:14.482Z,31.10
2023-03-06T07:12:44.758Z,31.12
2023-03-06T07:15:16.386Z,31.14
2023-03-06T07:17:48.913Z,31.18
2023-03-06T07:20:21.050Z,31.22
2023-03-06T07:22:52.020Z,31.23
2023-03-06T07:25:22.842Z,31.25
2023-03-06T07:27:54.733Z,31.29
2023-03-06T07:30:25.447Z,31.32
2023-03-06T07:32:56.849Z,31.35
2023-03-06T07:35:27.422Z,31.36
2023-03-06T07:37:57.633Z,31.39
2023-03-06T07:40:28.340Z,31.42
2023-03-06T07:43:16.847Z,31.46
2023-03-06T07:46:00.312Z,31.49
2023-03-06T07:48:30.549Z,31.51
2023-03-06T07:51:02.462Z,31.55
2023-03-06T07:53:33.012Z,31.58
2023-03-06T07:56:09.913Z,31.61
2023-03-06T07:58:41.429Z,31.66
2023-03-06T08:01:13.567Z,31.68
2023-03-06T08:03:43.843Z,31.73
2023-03-06T08:06:18.739Z,31.76
2023-03-06T08:08:49.563Z,31.80
2023-03-06T08:11:21.043Z,31.84
2023-03-06T08:13:51.292Z,31.86
2023-03-06T08:16:22.611Z,31.88
2023-03-06T08:18:53.140Z,31.92
2023-03-06T08:21:25.374Z,31.93
2023-03-06T08:23:55.909Z,31.96
2023-03-06T08:26:27.532Z,31.97
2023-03-06T08:28:58.702Z,32.00
2023-03-06T08:31:28.924Z,32.03
2023-03-06T08:33:59.921Z,32.04
2023-03-06T08:36:30.418Z,32.07
2023-03-06T08:39:01.133Z,32.11
2023-03-06T08:41:31.643Z,32.13
2023-03-06T08:44:01.970Z,32.15
2023-03-06T08:46:32.495Z,32.16
2023-03-06T08:49:02.983Z,32.20
2023-03-06T08:51:33.381Z,32.22
2023-03-06T08:54:03.587Z,32.25
2023-03-06T08:56:35.396Z,32.26
2023-03-06T08:59:06.536Z,32.27
2023-03-06T09:01:39.181Z,32.31
2023-03-06T09:04:11.303Z,32.32
2023-03-06T09:06:43.408Z,32.34
2023-03-06T09:09:14.621Z,32.35
2023-03-06T09:11:45.159Z,32.39
2023-03-06T09:14:16.004Z,32.40
2023-03-06T09:16:46.599Z,32.42
2023-03-06T09:19:16.826Z,32.41
2023-03-06T09:21:47.351Z,32.15
2023-03-06T09:24:18.280Z,31.98
2023-03-06T09:26:51.149Z,31.85
2023-03-06T09:29:21.689Z,31.76
2023-03-06T09:31:52.002Z,31.72
2023-03-06T09:34:22.736Z,31.69
2023-03-06T09:36:57.087Z,31.66
2023-03-06T09:39:28.625Z,31.64
2023-03-06T09:41:59.829Z,31.63
2023-03-06T09:44:32.375Z,31.60
2023-03-06T09:47:02.544Z,31.57
2023-03-06T09:49:35.446Z,31.56
2023-03-06T09:52:05.599Z,31.54
2023-03-06T09:54:58.919Z,31.51
2023-03-06T09:57:30.988Z,31.49
2023-03-06T10:00:04.595Z,31.51
2023-03-06T10:02:40.314Z,31.52
2023-03-06T10:05:15.578Z,31.48
2023-03-06T10:07:48.709Z,31.47
2023-03-06T10:10:24.254Z,31.46
2023-03-06T10:12:57.777Z,31.43
2023-03-06T10:15:29.909Z,31.42
2023-03-06T10:18:00.243Z,31.23
2023-03-06T10:20:35.605Z,31.37
2023-03-06T10:23:26.234Z,31.36
2023-03-06T10:25:56.334Z,31.35
2023-03-06T10:28:30.715Z,31.33
2023-03-06T10:31:00.912Z,31.33
2023-03-06T10:33:46.153Z,31.35
2023-03-06T10:36:18.030Z,31.35
2023-03-06T10:38:50.066Z,31.35
2023-03-06T10:41:24.046Z,31.37
2023-03-06T10:44:03.259Z,31.36
2023-03-06T10:46:35.690Z,31.37
2023-03-06T10:49:10.584Z,31.36
2023-03-06T10:51:40.769Z,31.34
2023-03-06T10:54:11.063Z,31.34
2023-03-06T10:56:43.231Z,31.34
2023-03-06T10:59:15.015Z,31.31
2023-03-06T11:01:46.641Z,31.28
2023-03-06T11:04:28.050Z,31.27
2023-03-06T11:07:07.346Z,31.26
2023-03-06T11:09:38.306Z,31.24
2023-03-06T11:12:26.725Z,31.24
2023-03-06T11:15:11.821Z,31.23
2023-03-06T11:18:02.483Z,31.20
2023-03-06T11:20:51.425Z,31.27
2023-03-06T11:23:25.452Z,31.39
2023-03-06T11:26:07.600Z,31.47
2023-03-06T11:29:00.695Z,31.56
2023-03-06T11:31:33.463Z,31.59
2023-03-06T11:34:03.675Z,31.61
2023-03-06T11:36:36.880Z,31.63
2023-03-06T11:39:18.363Z,31.64
2023-03-06T11:41:59.618Z,31.65
2023-03-06T11:44:45.264Z,31.64
2023-03-06T11:47:21.739Z,31.64
2023-03-06T11:49:54.728Z,31.64
2023-03-06T11:52:28.176Z,31.64
2023-03-06T11:54:59.425Z,31.63
2023-03-06T11:57:42.946Z,31.64
2023-03-06T12:00:18.903Z,31.61
2023-03-06T12:02:58.620Z,31.61
2023-03-06T12:05:38.757Z,31.60
2023-03-06T12:08:27.456Z,31.60
2023-03-06T12:14:09.670Z,31.54
2023-03-06T12:16:54.471Z,31.55
2023-03-06T12:19:44.735Z,31.43
2023-03-06T12:22:36.475Z,31.35
2023-03-06T12:25:18.312Z,31.36
2023-03-06T12:28:00.436Z,31.37
2023-03-06T12:30:34.049Z,31.30
2023-03-06T12:33:04.232Z,31.25
2023-03-06T12:35:45.704Z,31.20
2023-03-06T12:38:34.174Z,31.17
2023-03-06T12:41:14.489Z,31.15
2023-03-06T12:44:03.979Z,31.13
2023-03-06T12:46:36.365Z,31.11
2023-03-06T12:49:06.523Z,31.10
2023-03-06T12:51:37.879Z,31.16
2023-03-06T12:54:08.775Z,31.12
2023-03-06T12:56:40.789Z,31.04
2023-03-06T12:59:32.394Z,30.93
2023-03-06T13:02:26.044Z,30.73
2023-03-06T13:05:14.179Z,30.51
2023-03-06T13:08:02.715Z,30.34
2023-03-06T13:10:37.847Z,30.23
2023-03-06T13:13:27.385Z,30.13
2023-03-06T13:16:24.308Z,30.01
2023-03-06T13:19:03.001Z,29.95
2023-03-06T13:21:51.398Z,29.83
2023-03-06T13:24:28.812Z,29.76
2023-03-06T13:27:01.505Z,29.69
2023-03-06T13:29:37.652Z,29.62
2023-03-06T13:32:16.565Z,29.55
2023-03-06T13:34:51.471Z,29.48
2023-03-06T13:37:22.475Z,29.43
2023-03-06T13:39:55.589Z,29.39
2023-03-06T13:42:36.662Z,29.28
2023-03-06T13:45:15.714Z,29.25
2023-03-06T13:50:49.211Z,29.14
2023-03-06T13:53:40.147Z,29.09
2023-03-06T13:56:10.469Z,29.04
2023-03-06T13:58:59.340Z,29.02
2023-03-06T14:01:32.823Z,28.99
2023-03-06T14:04:21.232Z,28.94
2023-03-06T14:07:11.672Z,28.93
2023-03-06T14:09:44.484Z,28.90
2023-03-06T14:12:19.629Z,28.85
2023-03-06T14:14:52.565Z,28.84
2023-03-06T14:17:29.260Z,28.82
2023-03-06T14:20:19.644Z,28.82
2023-03-06T14:22:50.487Z,28.82
2023-03-06T14:25:20.631Z,28.82
2023-03-06T14:27:55.000Z,28.41
2023-03-06T14:30:28.482Z,28.83
2023-03-06T14:32:59.089Z,28.80
2023-03-06T14:35:31.230Z,28.77
2023-03-06T14:38:04.198Z,28.69
2023-03-06T14:40:42.726Z,28.67
2023-03-06T14:43:24.555Z,28.66
2023-03-06T14:45:59.872Z,28.63
2023-03-06T14:48:40.799Z,28.61
2023-03-06T14:51:37.005Z,28.57
2023-03-06T14:54:08.313Z,28.59
2023-03-06T14:56:42.917Z,28.56
2023-03-06T14:59:17.799Z,28.50
2023-03-06T15:01:50.308Z,28.45
2023-03-06T15:04:38.757Z,28.42
2023-03-06T15:07:14.377Z,28.36
2023-03-06T15:09:54.926Z,28.31
2023-03-06T15:12:25.816Z,28.25
2023-03-06T15:15:21.812Z,28.19
2023-03-06T15:17:52.017Z,28.16
2023-03-06T15:20:42.650Z,28.12
2023-03-06T15:23:35.710Z,28.06
2023-03-06T15:26:20.197Z,28.01
2023-03-06T15:29:09.108Z,27.98
2023-03-06T15:31:41.138Z,28.07
2023-03-06T15:34:11.414Z,28.13
2023-03-06T15:36:46.615Z,28.17
2023-03-06T15:39:30.931Z,28.16
2023-03-06T15:42:19.803Z,28.17
2023-03-06T15:45:04.568Z,28.20
2023-03-06T15:47:34.962Z,28.17
2023-03-06T15:50:06.029Z,28.19
2023-03-06T15:52:36.338Z,28.20
2023-03-06T15:55:06.692Z,28.20
2023-03-06T15:57:37.673Z,28.18
2023-03-06T16:00:26.465Z,28.18
2023-03-06T16:02:58.952Z,28.17
2023-03-06T16:05:30.538Z,28.15
2023-03-06T16:08:01.522Z,28.14
2023-03-06T16:10:32.621Z,28.11
2023-03-06T16:13:04.740Z,28.11
2023-03-06T16:15:40.048Z,28.07
2023-03-06T16:18:12.230Z,28.04
2023-03-06T16:20:43.076Z,28.03
2023-03-06T16:23:13.371Z,27.99
2023-03-06T16:25:45.782Z,27.98
2023-03-06T16:28:18.117Z,27.96
2023-03-06T16:30:48.448Z,27.93
2023-03-06T16:33:19.115Z,27.88
2023-03-06T16:35:49.648Z,27.87
2023-03-06T16:38:19.907Z,27.90
2023-03-06T16:40:50.119Z,27.90
2023-03-06T16:43:20.480Z,27.87
2023-03-06T16:45:50.743Z,27.85
2023-03-06T16:48:20.946Z,27.82
2023-03-06T16:50:52.624Z,27.81
2023-03-06T16:53:23.385Z,27.80
2023-03-06T16:55:53.761Z,27.78
2023-03-06T16:58:24.627Z,27.76
2023-03-06T17:00:55.982Z,27.76
2023-03-06T17:03:27.858Z,27.74
2023-03-06T17:05:58.104Z,27.73
2023-03-06T17:08:28.370Z,27.69
2023-03-06T17:10:58.513Z,27.69
2023-03-06T17:13:29.543Z,27.65
2023-03-06T17:16:00.836Z,27.66
2023-03-06T17:18:31.856Z,27.62
2023-03-06T17:21:02.049Z,27.62
2023-03-06T17:23:32.400Z,27.61
2023-03-06T17:26:06.368Z,27.57
2023-03-06T17:28:36.977Z,27.55
2023-03-06T17:31:15.709Z,27.55
2023-03-06T17:33:45.943Z,27.52
2023-03-06T17:36:16.726Z,27.53
2023-03-06T17:38:47.385Z,27.49
2023-03-06T17:41:17.632Z,27.51
2023-03-06T17:43:47.956Z,27.48
2023-03-06T17:46:19.795Z,27.47
2023-03-06T17:48:50.075Z,27.47
2023-03-06T17:51:20.610Z,27.43
2023-03-06T17:53:50.954Z,27.42
2023-03-06T17:56:21.201Z,27.40
2023-03-06T17:58:51.385Z,27.39
2023-03-06T18:01:23.442Z,27.37
2023-03-06T18:03:53.723Z,27.22
2023-03-06T18:06:24.776Z,27.35
2023-03-06T18:08:55.990Z,27.33
2023-03-06T18:11:26.422Z,27.30
2023-03-06T18:13:56.782Z,27.30
2023-03-06T18:16:28.504Z,27.29
2023-03-06T18:18:58.917Z,27.28
2023-03-06T18:21:30.148Z,27.27
2023-03-06T18:24:00.710Z,27.28
2023-03-06T18:26:31.943Z,27.26
2023-03-06T18:29:04.905Z,27.21
2023-03-06T18:31:36.892Z,27.22
2023-03-06T18:34:11.979Z,27.20
2023-03-06T18:36:44.009Z,27.18
2023-03-06T18:39:15.928Z,27.20
2023-03-06T18:41:46.525Z,27.18
2023-03-06T18:44:17.748Z,27.17
2023-03-06T18:46:47.983Z,27.15
2023-03-06T18:49:18.134Z,27.14
2023-03-06T18:51:49.564Z,27.17
2023-03-06T18:54:20.492Z,27.26
2023-03-06T18:56:50.639Z,27.31
2023-03-06T18:59:21.588Z,27.37
2023-03-06T19:01:53.436Z,27.44
2023-03-06T19:04:27.359Z,27.39
2023-03-06T19:06:57.873Z,27.36
2023-03-06T19:09:28.614Z,27.31
2023-03-06T19:12:04.888Z,27.29
2023-03-06T19:14:35.111Z,27.23
2023-03-06T19:17:05.307Z,27.20
2023-03-06T19:19:35.582Z,27.17
2023-03-06T19:22:05.777Z,27.13
2023-03-06T19:24:36.087Z,27.13
2023-03-06T19:27:06.273Z,27.10
2023-03-06T19:29:36.472Z,27.11
2023-03-06T19:32:06.883Z,27.15
2023-03-06T19:34:37.051Z,27.22
2023-03-06T19:37:07.206Z,27.28
2023-03-06T19:39:37.389Z,27.34
2023-03-06T19:42:08.230Z,27.37
2023-03-06T19:44:38.640Z,27.34
2023-03-06T19:47:08.792Z,27.29
2023-03-06T19:49:40.151Z,27.24
2023-03-06T19:52:10.449Z,27.22
2023-03-06T19:54:40.630Z,27.20
2023-03-06T19:57:10.845Z,27.15
2023-03-06T19:59:41.434Z,27.11
2023-03-06T20:02:14.721Z,27.09
2023-03-06T20:04:44.881Z,27.07
2023-03-06T20:07:15.098Z,27.10
2023-03-06T20:09:45.224Z,27.15
2023-03-06T20:12:16.117Z,27.22
2023-03-06T20:14:47.551Z,27.27
2023-03-06T20:17:18.908Z,27.32
2023-03-06T20:19:49.363Z,27.31
2023-03-06T20:22:20.612Z,27.29
2023-03-06T20:24:51.611Z,27.21
2023-03-06T20:27:21.906Z,27.15
2023-03-06T20:29:52.644Z,27.14
2023-03-06T20:32:22.780Z,27.11
2023-03-06T20:34:53.693Z,27.09
2023-03-06T20:37:23.877Z,27.07
2023-03-06T20:39:54.210Z,27.02
2023-03-06T20:42:24.753Z,27.00
2023-03-06T20:44:59.923Z,27.07
2023-03-06T20:47:38.053Z,27.11
2023-03-06T20:50:08.621Z,27.16
2023-03-06T20:52:39.352Z,27.22
2023-03-06T20:55:09.827Z,27.27
2023-03-06T20:57:39.985Z,27.26
2023-03-06T21:00:10.553Z,27.20
2023-03-06T21:02:40.768Z,27.15
2023-03-06T21:05:11.293Z,27.11
2023-03-06T21:07:41.725Z,27.10
2023-03-06T21:10:13.034Z,27.05
2023-03-06T21:12:43.237Z,27.01
2023-03-06T21:15:14.453Z,26.96
2023-03-06T21:17:45.079Z,26.99
2023-03-06T21:20:15.330Z,27.05
2023-03-06T21:22:45.534Z,27.10
2023-03-06T21:25:15.955Z,27.14
2023-03-06T21:27:46.425Z,27.19
2023-03-06T21:30:16.601Z,27.23
2023-03-06T21:32:47.002Z,27.26
2023-03-06T21:35:17.782Z,27.21
2023-03-06T21:37:48.518Z,27.14
2023-03-06T21:40:18.835Z,27.06
2023-03-06T21:42:49.122Z,27.06
2023-03-06T21:45:19.457Z,27.03
2023-03-06T21:47:50.356Z,26.99
2023-03-06T21:50:20.648Z,26.98
2023-03-06T21:52:51.050Z,27.03
2023-03-06T21:55:21.351Z,27.08
2023-03-06T21:57:52.538Z,27.11
2023-03-06T22:00:25.135Z,27.15
2023-03-06T22:02:55.473Z,27.17
2023-03-06T22:05:26.429Z,27.20
2023-03-06T22:07:56.743Z,27.22
2023-03-06T22:10:28.248Z,27.16
2023-03-06T22:12:58.561Z,27.11
2023-03-06T22:15:28.755Z,27.08
2023-03-06T22:18:01.592Z,27.05
2023-03-06T22:20:31.783Z,27.01
2023-03-06T22:23:01.943Z,27.01
2023-03-06T22:25:32.734Z,27.03
2023-03-06T22:28:03.630Z,27.07
2023-03-06T22:30:33.828Z,27.09
2023-03-06T22:33:04.219Z,27.12
2023-03-06T22:35:34.608Z,27.15
2023-03-06T22:38:06.008Z,27.17
2023-03-06T22:40:36.237Z,27.19
2023-03-06T22:43:06.521Z,27.18
2023-03-06T22:45:36.793Z,27.11
2023-03-06T22:48:11.071Z,27.04
2023-03-06T22:50:41.732Z,26.95
2023-03-06T22:53:12.732Z,26.94
2023-03-06T22:55:43.012Z,26.93
2023-03-06T22:58:13.553Z,26.96
2023-03-06T23:00:43.915Z,27.00
2023-03-06T23:03:14.600Z,27.04
2023-03-06T23:05:44.866Z,27.07
2023-03-06T23:08:15.123Z,27.09
2023-03-06T23:10:45.099Z,27.12
2023-03-06T23:13:33.776Z,27.14
2023-03-06T23:16:23.202Z,27.11
2023-03-06T23:19:12.235Z,27.04
2023-03-06T23:22:00.465Z,27.00
2023-03-06T23:24:49.287Z,26.93
2023-03-06T23:27:20.730Z,26.89
2023-03-06T23:29:51.851Z,26.89
2023-03-06T23:32:22.260Z,26.95
2023-03-06T23:34:52.479Z,26.96
2023-03-06T23:37:22.980Z,27.01
2023-03-06T23:39:53.423Z,27.03
2023-03-06T23:42:24.077Z,27.06
2023-03-06T23:44:54.330Z,27.08
2023-03-06T23:47:24.579Z,27.10
2023-03-06T23:49:54.805Z,27.06
2023-03-06T23:52:25.043Z,27.11
2023-03-06T23:54:55.628Z,27.16
2023-03-06T23:57:26.432Z,27.22
2023-03-06T23:59:57.051Z,27.28
